Time;durP1;ratioP1;P1;durP2;ratioP2;P2;SDS_P1;SDS_P2;PMS_P1;PMS_P2;Temp;Humidity;BMP_temperature;BMP_pressure;BME280_temperature;BME280_humidity;BME280_pressure;Samples;Min_cycle;Max_cycle;Signal;HPM_P1;HPM_P2
2022/10/05 00:01:43;;;;;;;;;;;;;;;;;;4931625;29;44476;-80
2022/10/05 00:04:10;;;;;;;;;;;;;;;;;;4932253;29;44542;-81
2022/10/05 00:06:38;;;;;;;;;;;;;;;;;;4932752;29;45909;-80
2022/10/05 00:09:04;;;;;;;;;;;;;;;;;;4932952;29;45503;-81
2022/10/05 00:11:31;;;;;;;;;;;;;;;;;;4932263;29;45062;-81
2022/10/05 00:13:58;;;;;;;;;;;;;;;;;;4933230;29;45130;-80
2022/10/05 00:16:25;;;;;;;;;;;;;;;;;;4932080;29;45601;-81
2022/10/05 00:18:52;;;;;;;;;;;;;;;;;;4931671;29;43262;-81
2022/10/05 00:21:19;;;;;;;;;;;;;;;;;;4932403;29;44711;-81
2022/10/05 00:23:46;;;;;;;;;;;;;;;;;;4931744;29;44757;-81
2022/10/05 00:26:13;;;;;;;;;;;;;;;;;;4930914;29;46735;-82
2022/10/05 00:28:40;;;;;;;;;;;;;;;;;;4931864;29;45359;-81
2022/10/05 00:31:07;;;;;;;;;;;;;;;;;;4930347;28;44767;-81
2022/10/05 00:33:34;;;;;;;;;;;;;;;;;;4931032;29;45299;-81
2022/10/05 00:36:01;;;;;;;;;;;;;;;;;;4931587;29;45787;-81
2022/10/05 00:38:28;;;;;;;;;;;;;;;;;;4931043;29;44884;-81
2022/10/05 00:40:55;;;;;;;;;;;;;;;;;;4930333;29;43694;-82
2022/10/05 00:43:22;;;;;;;;;;;;;;;;;;4930729;29;44860;-82
2022/10/05 00:45:49;;;;;;;;;;;;;;;;;;4931860;29;45813;-81
2022/10/05 00:48:18;;;;;;;;;;;;;;;;;;4930039;29;45166;-82
2022/10/05 00:50:45;;;;;;;;;;;;;;;;;;4930451;29;43634;-80
2022/10/05 00:53:12;;;;;;;;;;;;;;;;;;4930438;29;43566;-81
2022/10/05 00:55:39;;;;;;;;;;;;;;;;;;4930428;29;47102;-81
2022/10/05 00:58:06;;;;;;;;;;;;;;;;;;4932991;29;45118;-81
2022/10/05 01:00:33;;;;;;;;;;;;;;;;;;4932418;29;43411;-81
2022/10/05 01:03:00;;;;;;;;;;;;;;;;;;4930886;29;45293;-81
2022/10/05 01:05:27;;;;;;;;;;;;;;;;;;4929305;28;45817;-81
2022/10/05 01:07:54;;;;;;;;;;;;;;;;;;4930175;29;45066;-81
2022/10/05 01:10:21;;;;;;;;;;;;;;;;;;4931384;29;43612;-81
2022/10/05 01:12:48;;;;;;;;;;;;;;;;;;4931899;29;44744;-81
2022/10/05 01:15:15;;;;;;;;;;;;;;;;;;4932664;29;45712;-81
2022/10/05 01:17:43;;;;;;;;;;;;;;;;;;4931189;29;46115;-80
2022/10/05 01:20:10;;;;;;;;;;;;;;;;;;4932154;29;43396;-81
2022/10/05 01:22:37;;;;;;;;;;;;;;;;;;4931048;29;45055;-81
2022/10/05 01:25:04;;;;;;;;;;;;;;;;;;4931906;29;45409;-81
2022/10/05 01:27:31;;;;;;;;;;;;;;;;;;4930490;28;45095;-81
2022/10/05 01:29:58;;;;;;;;;;;;;;;;;;4930431;29;44026;-81
2022/10/05 01:32:25;;;;;;;;;;;;;;;;;;4929452;29;44869;-81
2022/10/05 01:34:52;;;;;;;;;;;;;;;;;;4930464;29;45357;-80
2022/10/05 01:37:19;;;;;;;;;;;;;;;;;;4929717;29;44981;-81
2022/10/05 01:39:48;;;;;;;;;;;;;;;;;;4929496;29;43508;-81
2022/10/05 01:42:15;;;;;;;;;;;;;;;;;;4930651;29;45778;-81
2022/10/05 01:44:42;;;;;;;;;;;;;;;;;;4930149;29;47391;-81
2022/10/05 01:47:09;;;;;;;;;;;;;;;;;;4929689;29;46163;-81
2022/10/05 01:49:37;;;;;;;;;;;;;;;;;;4929052;28;43619;-81
2022/10/05 01:52:04;;;;;;;;;;;;;;;;;;4930249;29;44780;-81
2022/10/05 01:54:30;;;;;;;;;;;;;;;;;;4930471;29;45831;-81
2022/10/05 01:56:57;;;;;;;;;;;;;;;;;;4930197;29;45290;-81
2022/10/05 01:59:24;;;;;;;;;;;;;;;;;;4930248;29;43885;-81
2022/10/05 02:01:51;;;;;;;;;;;;;;;;;;4929880;28;44856;-81
2022/10/05 02:04:18;;;;;;;;;;;;;;;;;;4929725;29;45234;-80
2022/10/05 02:07:05;;;;;;;;;;;;;;;;;;4931405;29;19974;-80
2022/10/05 02:09:32;;;;;;;;;;;;;;;;;;4929839;29;42008;-81
2022/10/05 02:11:59;;;;;;;;;;;;;;;;;;4929977;29;45943;-83
2022/10/05 02:14:26;;;;;;;;;;;;;;;;;;4929499;28;45580;-82
2022/10/05 02:16:53;;;;;;;;;;;;;;;;;;4929588;29;46679;-80
2022/10/05 02:19:20;;;;;;;;;;;;;;;;;;4929404;29;43706;-80
2022/10/05 02:21:47;;;;;;;;;;;;;;;;;;4928814;29;45962;-81
2022/10/05 02:24:14;;;;;;;;;;;;;;;;;;4931041;29;45842;-81
2022/10/05 02:26:41;;;;;;;;;;;;;;;;;;4930938;29;44992;-81
2022/10/05 02:29:08;;;;;;;;;;;;;;;;;;4929519;29;44303;-81
2022/10/05 02:31:35;;;;;;;;;;;;;;;;;;4931567;29;44657;-81
2022/10/05 02:34:02;;;;;;;;;;;;;;;;;;4931206;29;45086;-81
2022/10/05 02:36:29;;;;;;;;;;;;;;;;;;4927543;29;45012;-80
2022/10/05 02:38:58;;;;;;;;;;;;;;;;;;4933616;29;43641;-80
2022/10/05 02:41:25;;;;;;;;;;;;;;;;;;4933215;29;44841;-81
2022/10/05 02:43:52;;;;;;;;;;;;;;;;;;4932705;29;46241;-81
2022/10/05 02:46:19;;;;;;;;;;;;;;;;;;4933401;29;46114;-81
2022/10/05 02:48:46;;;;;;;;;;;;;;;;;;4933371;29;42450;-81
2022/10/05 02:51:13;;;;;;;;;;;;;;;;;;4932495;29;45819;-81
2022/10/05 02:53:40;;;;;;;;;;;;;;;;;;4932470;29;46900;-80
2022/10/05 02:56:07;;;;;;;;;;;;;;;;;;4933134;29;45328;-81
2022/10/05 02:58:34;;;;;;;;;;;;;;;;;;4932056;29;43694;-81
2022/10/05 03:01:01;;;;;;;;;;;;;;;;;;4932131;28;44394;-80
2022/10/05 03:03:28;;;;;;;;;;;;;;;;;;4932315;29;46486;-82
2022/10/05 03:05:55;;;;;;;;;;;;;;;;;;4932502;28;45015;-80
2022/10/05 03:08:22;;;;;;;;;;;;;;;;;;4932920;29;44784;-81
2022/10/05 03:10:49;;;;;;;;;;;;;;;;;;4929824;28;46185;-81
2022/10/05 03:13:16;;;;;;;;;;;;;;;;;;4931311;29;46845;-81
2022/10/05 03:15:43;;;;;;;;;;;;;;;;;;4930626;29;45257;-81
2022/10/05 03:18:10;;;;;;;;;;;;;;;;;;4932256;29;43029;-80
2022/10/05 03:20:37;;;;;;;;;;;;;;;;;;4931934;29;44766;-81
2022/10/05 03:23:04;;;;;;;;;;;;;;;;;;4932051;28;44583;-81
2022/10/05 03:25:31;;;;;;;;;;;;;;;;;;4933205;29;45135;-80
2022/10/05 03:27:58;;;;;;;;;;;;;;;;;;4932790;29;43914;-81
2022/10/05 03:30:26;;;;;;;;;;;;;;;;;;4932536;29;44878;-80
2022/10/05 03:32:53;;;;;;;;;;;;;;;;;;4932826;29;46821;-80
2022/10/05 03:35:20;;;;;;;;;;;;;;;;;;4931755;29;45699;-81
2022/10/05 03:37:47;;;;;;;;;;;;;;;;;;4933485;29;43702;-80
2022/10/05 03:40:14;;;;;;;;;;;;;;;;;;4932842;29;44785;-82
2022/10/05 03:42:41;;;;;;;;;;;;;;;;;;4932825;29;45791;-82
2022/10/05 03:45:08;;;;;;;;;;;;;;;;;;4932364;29;44985;-81
2022/10/05 03:47:35;;;;;;;;;;;;;;;;;;4933090;28;43704;-81
2022/10/05 03:50:02;;;;;;;;;;;;;;;;;;4931286;29;45028;-81
2022/10/05 03:52:29;;;;;;;;;;;;;;;;;;4932703;29;46670;-81
2022/10/05 03:54:56;;;;;;;;;;;;;;;;;;4933632;29;45533;-80
2022/10/05 03:57:23;;;;;;;;;;;;;;;;;;4932861;29;43706;-81
2022/10/05 03:59:50;;;;;;;;;;;;;;;;;;4933160;29;44873;-81
2022/10/05 04:02:17;;;;;;;;;;;;;;;;;;4932852;29;44358;-81
2022/10/05 04:04:45;;;;;;;;;;;;;;;;;;4931580;28;45932;-81
2022/10/05 04:07:12;;;;;;;;;;;;;;;;;;4933183;29;43660;-81
2022/10/05 04:09:39;;;;;;;;;;;;;;;;;;4931766;29;44870;-81
2022/10/05 04:12:05;;;;;;;;;;;;;;;;;;4932151;29;43803;-81
2022/10/05 04:14:32;;;;;;;;;;;;;;;;;;4930990;29;45051;-81
2022/10/05 04:16:59;;;;;;;;;;;;;;;;;;4931054;29;43911;-81
2022/10/05 04:19:26;;;;;;;;;;;;;;;;;;4930826;29;45215;-81
2022/10/05 04:21:53;;;;;;;;;;;;;;;;;;4930536;29;45995;-81
2022/10/05 04:24:20;;;;;;;;;;;;;;;;;;4931550;29;45142;-80
2022/10/05 04:26:47;;;;;;;;;;;;;;;;;;4931795;29;43827;-81
2022/10/05 04:29:17;;;;;;;;;;;;;;;;;;4930876;29;44888;-81
2022/10/05 04:31:44;;;;;;;;;;;;;;;;;;4930772;29;45929;-80
2022/10/05 04:34:11;;;;;;;;;;;;;;;;;;4930684;29;44982;-81
2022/10/05 04:36:38;;;;;;;;;;;;;;;;;;4929622;29;43625;-80
2022/10/05 04:39:05;;;;;;;;;;;;;;;;;;4929410;29;44687;-81
2022/10/05 04:41:32;;;;;;;;;;;;;;;;;;4929746;28;46145;-80
2022/10/05 04:43:59;;;;;;;;;;;;;;;;;;4933533;29;45413;-80
2022/10/05 04:46:26;;;;;;;;;;;;;;;;;;4932855;29;43596;-81
2022/10/05 04:48:53;;;;;;;;;;;;;;;;;;4934592;29;44561;-81
2022/10/05 04:51:20;;;;;;;;;;;;;;;;;;4932736;29;44844;-81
2022/10/05 04:53:47;;;;;;;;;;;;;;;;;;4932645;29;44966;-81
2022/10/05 04:56:14;;;;;;;;;;;;;;;;;;4932379;29;43836;-81
2022/10/05 04:58:41;;;;;;;;;;;;;;;;;;4930561;29;44659;-83
2022/10/05 05:01:08;;;;;;;;;;;;;;;;;;4929253;28;45893;-81
2022/10/05 05:03:35;;;;;;;;;;;;;;;;;;4931397;29;44616;-81
2022/10/05 05:06:02;;;;;;;;;;;;;;;;;;4932210;29;43633;-81
2022/10/05 05:08:44;;;;;;;;;;;;;;;;;;4931060;29;44888;-81
2022/10/05 05:11:11;;;;;;;;;;;;;;;;;;4933880;29;45816;-81
2022/10/05 05:13:42;;;;;;;;;;;;;;;;;;4933697;29;44199;-80
2022/10/05 05:16:09;;;;;;;;;;;;;;;;;;4931118;28;41441;-81
2022/10/05 05:18:36;;;;;;;;;;;;;;;;;;4931615;29;44607;-80
2022/10/05 05:21:03;;;;;;;;;;;;;;;;;;4932173;29;47679;-82
2022/10/05 05:23:30;;;;;;;;;;;;;;;;;;4931827;29;45120;-83
2022/10/05 05:25:57;;;;;;;;;;;;;;;;;;4933569;29;41933;-80
2022/10/05 05:28:24;;;;;;;;;;;;;;;;;;4932057;29;46000;-80
2022/10/05 05:30:52;;;;;;;;;;;;;;;;;;4933164;29;44405;-80
2022/10/05 05:33:19;;;;;;;;;;;;;;;;;;4930226;29;46009;-81
2022/10/05 05:35:46;;;;;;;;;;;;;;;;;;4932613;29;42321;-81
2022/10/05 05:38:13;;;;;;;;;;;;;;;;;;4932020;29;44867;-81
2022/10/05 05:40:40;;;;;;;;;;;;;;;;;;4932048;29;46905;-81
2022/10/05 05:43:07;;;;;;;;;;;;;;;;;;4931852;29;43099;-81
2022/10/05 05:45:34;;;;;;;;;;;;;;;;;;4930007;29;41767;-81
2022/10/05 05:48:01;;;;;;;;;;;;;;;;;;4930848;29;45193;-81
2022/10/05 05:50:29;;;;;;;;;;;;;;;;;;4930065;29;45816;-81
2022/10/05 05:52:56;;;;;;;;;;;;;;;;;;4930995;29;45117;-81
2022/10/05 05:55:23;;;;;;;;;;;;;;;;;;4930105;29;43713;-81
2022/10/05 05:57:55;;;;;;;;;;;;;;;;;;4929743;29;45112;-81
2022/10/05 06:00:22;;;;;;;;;;;;;;;;;;4932240;29;45744;-82
2022/10/05 06:02:49;;;;;;;;;;;;;;;;;;4932345;28;45101;-82
2022/10/05 06:05:16;;;;;;;;;;;;;;;;;;4929920;29;43884;-81
2022/10/05 06:07:43;;;;;;;;;;;;;;;;;;4929650;29;44719;-81
2022/10/05 06:10:10;;;;;;;;;;;;;;;;;;4930643;29;44405;-81
2022/10/05 06:12:37;;;;;;;;;;;;;;;;;;4935987;29;44986;-82
2022/10/05 06:15:04;;;;;;;;;;;;;;;;;;4932574;29;42104;-82
2022/10/05 06:17:34;;;;;;;;;;;;;;;;;;4933038;29;46466;-81
2022/10/05 06:20:01;;;;;;;;;;;;;;;;;;4933551;28;46883;-81
2022/10/05 06:22:31;;;;;;;;;;;;;;;;;;4930560;28;43751;-81
2022/10/05 06:24:58;;;;;;;;;;;;;;;;;;4933550;29;43234;-82
2022/10/05 06:27:25;;;;;;;;;;;;;;;;;;4932970;29;44925;-81
2022/10/05 06:29:52;;;;;;;;;;;;;;;;;;4934782;29;46752;-81
2022/10/05 06:32:19;;;;;;;;;;;;;;;;;;4933501;29;44913;-81
2022/10/05 06:34:46;;;;;;;;;;;;;;;;;;4932584;29;44358;-81
2022/10/05 06:37:13;;;;;;;;;;;;;;;;;;4933911;29;42432;-81
2022/10/05 06:39:42;;;;;;;;;;;;;;;;;;4931711;29;45801;-81
2022/10/05 06:42:09;;;;;;;;;;;;;;;;;;4932903;29;43956;-81
2022/10/05 06:44:36;;;;;;;;;;;;;;;;;;4935285;28;43324;-81
2022/10/05 06:47:03;;;;;;;;;;;;;;;;;;4934746;29;42720;-81
2022/10/05 06:49:30;;;;;;;;;;;;;;;;;;4932898;29;45545;-82
2022/10/05 06:51:58;;;;;;;;;;;;;;;;;;4932664;29;43098;-81
2022/10/05 06:54:25;;;;;;;;;;;;;;;;;;4934130;29;44020;-81
2022/10/05 06:56:52;;;;;;;;;;;;;;;;;;4934598;28;45010;-82
2022/10/05 06:59:19;;;;;;;;;;;;;;;;;;4932940;28;44797;-81
2022/10/05 07:01:46;;;;;;;;;;;;;;;;;;4931724;29;44925;-81
2022/10/05 07:04:13;;;;;;;;;;;;;;;;;;4932861;29;44285;-81
2022/10/05 07:06:40;;;;;;;;;;;;;;;;;;4930661;28;45083;-81
2022/10/05 07:09:07;;;;;;;;;;;;;;;;;;4931294;29;45848;-82
2022/10/05 07:11:34;;;;;;;;;;;;;;;;;;4930662;29;44744;-82
2022/10/05 07:14:01;;;;;;;;;;;;;;;;;;4932012;29;44729;-81
2022/10/05 07:16:28;;;;;;;;;;;;;;;;;;4931838;29;43771;-82
2022/10/05 07:18:56;;;;;;;;;;;;;;;;;;4933450;29;45568;-81
2022/10/05 07:21:22;;;;;;;;;;;;;;;;;;4932937;28;44139;-81
2022/10/05 07:23:49;;;;;;;;;;;;;;;;;;4932332;29;44000;-81
2022/10/05 07:26:16;;;;;;;;;;;;;;;;;;4932235;29;45603;-82
2022/10/05 07:28:44;;;;;;;;;;;;;;;;;;4927891;29;46036;-81
2022/10/05 07:31:11;;;;;;;;;;;;;;;;;;4933456;29;45340;-81
2022/10/05 07:33:38;;;;;;;;;;;;;;;;;;4933951;29;43635;-81
2022/10/05 07:38:50;;;;;;;;;;;;;;;;;;4932049;29;45330;-81
2022/10/05 07:41:21;;;;;;;;;;;;;;;;;;4933914;29;44968;-81
2022/10/05 07:43:48;;;;;;;;;;;;;;;;;;4935604;29;43708;-81
2022/10/05 07:46:35;;;;;;;;;;;;;;;;;;4934088;29;44674;-80
2022/10/05 07:49:02;;;;;;;;;;;;;;;;;;4933255;29;45848;-81
2022/10/05 07:51:29;;;;;;;;;;;;;;;;;;4930818;29;46191;-81
2022/10/05 07:53:56;;;;;;;;;;;;;;;;;;4931551;29;43698;-80
2022/10/05 07:56:25;;;;;;;;;;;;;;;;;;4931179;29;44864;-80
2022/10/05 07:58:52;;;;;;;;;;;;;;;;;;4931256;29;45821;-80
2022/10/05 08:01:20;;;;;;;;;;;;;;;;;;4930481;29;45118;-82
2022/10/05 08:03:48;;;;;;;;;;;;;;;;;;4931894;29;43502;-81
2022/10/05 08:06:15;;;;;;;;;;;;;;;;;;4929061;29;45068;-80
2022/10/05 08:08:42;;;;;;;;;;;;;;;;;;4932116;29;46863;-81
2022/10/05 08:11:09;;;;;;;;;;;;;;;;;;4930732;28;44389;-81
2022/10/05 08:13:36;;;;;;;;;;;;;;;;;;4930691;29;42667;-81
2022/10/05 08:16:04;;;;;;;;;;;;;;;;;;4931337;28;44888;-81
2022/10/05 08:18:31;;;;;;;;;;;;;;;;;;4930893;29;46528;-80
2022/10/05 08:20:58;;;;;;;;;;;;;;;;;;4930651;29;45077;-81
2022/10/05 08:23:25;;;;;;;;;;;;;;;;;;4928932;29;43738;-81
2022/10/05 08:25:52;;;;;;;;;;;;;;;;;;4932233;29;44732;-81
2022/10/05 08:28:19;;;;;;;;;;;;;;;;;;4931069;28;45714;-81
2022/10/05 08:30:46;;;;;;;;;;;;;;;;;;4931222;28;46220;-81
2022/10/05 08:33:13;;;;;;;;;;;;;;;;;;4932330;29;43085;-81
2022/10/05 08:35:42;;;;;;;;;;;;;;;;;;4929771;29;45083;-81
2022/10/05 08:38:09;;;;;;;;;;;;;;;;;;4931639;29;45409;-81
2022/10/05 08:40:36;;;;;;;;;;;;;;;;;;4930403;29;44972;-81
2022/10/05 08:43:03;;;;;;;;;;;;;;;;;;4931269;29;44678;-81
2022/10/05 08:45:30;;;;;;;;;;;;;;;;;;4929398;29;43649;-81
2022/10/05 08:47:57;;;;;;;;;;;;;;;;;;4926620;28;45747;-80
2022/10/05 08:50:24;;;;;;;;;;;;;;;;;;4930503;28;44981;-81
2022/10/05 08:52:51;;;;;;;;;;;;;;;;;;4932690;29;43461;-81
2022/10/05 08:55:18;;;;;;;;;;;;;;;;;;4928750;28;43725;-81
2022/10/05 08:57:45;;;;;;;;;;;;;;;;;;4929792;29;46044;-81
2022/10/05 09:00:12;;;;;;;;;;;;;;;;;;4928569;29;45148;-81
2022/10/05 09:02:39;;;;;;;;;;;;;;;;;;4930616;29;43280;-80
2022/10/05 09:05:06;;;;;;;;;;;;;;;;;;4931381;29;45201;-81
2022/10/05 09:07:33;;;;;;;;;;;;;;;;;;4935246;29;45681;-80
2022/10/05 09:10:03;;;;;;;;;;;;;;;;;;4935457;29;44049;-81
2022/10/05 09:12:30;;;;;;;;;;;;;;;;;;4935079;29;43634;-80
2022/10/05 09:14:57;;;;;;;;;;;;;;;;;;4933779;29;44974;-81
2022/10/05 09:17:44;;;;;;;;;;;;;;;;;;4934125;29;20012;-81
2022/10/05 09:20:13;;;;;;;;;;;;;;;;;;4933469;29;45118;-80
2022/10/05 09:22:40;;;;;;;;;;;;;;;;;;4933468;29;43699;-81
2022/10/05 09:25:07;;;;;;;;;;;;;;;;;;4931922;29;44810;-82
2022/10/05 09:27:34;;;;;;;;;;;;;;;;;;4932561;29;45783;-81
2022/10/05 09:30:01;;;;;;;;;;;;;;;;;;4932870;29;46082;-82
2022/10/05 09:32:29;;;;;;;;;;;;;;;;;;4932439;29;43621;-81
2022/10/05 09:34:56;;;;;;;;;;;;;;;;;;4932876;28;44760;-80
2022/10/05 09:37:25;;;;;;;;;;;;;;;;;;4933525;29;45847;-81
2022/10/05 09:39:52;;;;;;;;;;;;;;;;;;4933415;29;43686;-81
2022/10/05 09:42:23;;;;;;;;;;;;;;;;;;4931898;29;42568;-81
2022/10/05 09:44:50;;;;;;;;;;;;;;;;;;4931554;29;45860;-81
2022/10/05 09:47:17;;;;;;;;;;;;;;;;;;4931081;29;45270;-82
2022/10/05 09:49:44;;;;;;;;;;;;;;;;;;4932108;29;44880;-81
2022/10/05 09:52:11;;;;;;;;;;;;;;;;;;4932644;29;43093;-81
2022/10/05 09:54:42;;;;;;;;;;;;;;;;;;4932877;29;44657;-81
2022/10/05 09:57:10;;;;;;;;;;;;;;;;;;4931684;29;45388;-81
2022/10/05 09:59:37;;;;;;;;;;;;;;;;;;4930305;28;46487;-82
2022/10/05 10:02:04;;;;;;;;;;;;;;;;;;4930911;29;44023;-81
2022/10/05 10:04:34;;;;;;;;;;;;;;;;;;4932877;28;46563;-81
2022/10/05 10:07:03;;;;;;;;;;;;;;;;;;4931229;29;46144;-81
2022/10/05 10:09:30;;;;;;;;;;;;;;;;;;4932845;28;45417;-81
2022/10/05 10:12:01;;;;;;;;;;;;;;;;;;4931510;29;44349;-82
2022/10/05 10:14:28;;;;;;;;;;;;;;;;;;4934898;29;44884;-80
2022/10/05 10:16:55;;;;;;;;;;;;;;;;;;4932889;28;45088;-81
2022/10/05 10:19:23;;;;;;;;;;;;;;;;;;4932540;29;45100;-81
2022/10/05 10:21:49;;;;;;;;;;;;;;;;;;4931560;29;43720;-81
2022/10/05 10:24:16;;;;;;;;;;;;;;;;;;4932147;29;45063;-80
2022/10/05 10:26:43;;;;;;;;;;;;;;;;;;4932460;29;45703;-81
2022/10/05 10:29:10;;;;;;;;;;;;;;;;;;4931506;29;43677;-80
2022/10/05 10:31:37;;;;;;;;;;;;;;;;;;4930740;29;43327;-81
2022/10/05 10:34:04;;;;;;;;;;;;;;;;;;4929952;29;44872;-81
2022/10/05 10:36:32;;;;;;;;;;;;;;;;;;4930385;29;46130;-80
2022/10/05 10:38:59;;;;;;;;;;;;;;;;;;4932937;29;44277;-80
2022/10/05 10:41:26;;;;;;;;;;;;;;;;;;4929911;28;43630;-81
2022/10/05 10:43:53;;;;;;;;;;;;;;;;;;4927917;28;44783;-81
2022/10/05 10:46:20;;;;;;;;;;;;;;;;;;4925996;28;44461;-81
2022/10/05 10:48:47;;;;;;;;;;;;;;;;;;4921957;28;44750;-80
2022/10/05 10:51:14;;;;;;;;;;;;;;;;;;4924612;29;43712;-81
2022/10/05 10:53:41;;;;;;;;;;;;;;;;;;4922812;29;44450;-81
2022/10/05 10:56:10;;;;;;;;;;;;;;;;;;4931631;29;46412;-81
2022/10/05 10:58:38;;;;;;;;;;;;;;;;;;4931813;29;46599;-80
2022/10/05 11:01:05;;;;;;;;;;;;;;;;;;4930129;29;42084;-81
2022/10/05 11:03:32;;;;;;;;;;;;;;;;;;4932542;29;43338;-80
2022/10/05 11:05:59;;;;;;;;;;;;;;;;;;4932569;29;45887;-80
2022/10/05 11:08:26;;;;;;;;;;;;;;;;;;4932355;29;43710;-81
2022/10/05 11:10:53;;;;;;;;;;;;;;;;;;4931100;29;43711;-80
2022/10/05 11:13:20;;;;;;;;;;;;;;;;;;4932753;29;43427;-81
2022/10/05 11:15:47;;;;;;;;;;;;;;;;;;4933277;29;45802;-81
2022/10/05 11:18:15;;;;;;;;;;;;;;;;;;4936504;28;44793;-82
2022/10/05 11:20:42;;;;;;;;;;;;;;;;;;4932969;29;41273;-82
2022/10/05 11:23:09;;;;;;;;;;;;;;;;;;4932997;29;43546;-81
2022/10/05 11:25:36;;;;;;;;;;;;;;;;;;4933228;28;45367;-82
2022/10/05 11:28:03;;;;;;;;;;;;;;;;;;4932911;28;43503;-82
2022/10/05 11:30:30;;;;;;;;;;;;;;;;;;4929431;29;42703;-81
2022/10/05 11:32:57;;;;;;;;;;;;;;;;;;4931985;28;44879;-81
2022/10/05 11:35:24;;;;;;;;;;;;;;;;;;4930694;28;46824;-81
2022/10/05 11:37:52;;;;;;;;;;;;;;;;;;4931814;29;44984;-81
2022/10/05 11:40:19;;;;;;;;;;;;;;;;;;4931023;29;43730;-82
2022/10/05 11:42:48;;;;;;;;;;;;;;;;;;4933161;29;44645;-81
2022/10/05 11:45:15;;;;;;;;;;;;;;;;;;4931825;29;45386;-82
2022/10/05 11:47:42;;;;;;;;;;;;;;;;;;4932170;29;44464;-81
2022/10/05 11:50:09;;;;;;;;;;;;;;;;;;4924180;28;42354;-81
2022/10/05 11:52:35;;;;;;;;;;;;;;;;;;4890864;29;44896;-81
2022/10/05 11:55:02;;;;;;;;;;;;;;;;;;4892283;29;45812;-82
2022/10/05 11:57:38;;;;;;;;;;;;;;;;;;4894925;29;44144;-79
2022/10/05 12:00:05;;;;;;;;;;;;;;;;;;4899976;29;42664;-79
2022/10/05 12:02:33;;;;;;;;;;;;;;;;;;4897827;29;44868;-79
2022/10/05 12:05:00;;;;;;;;;;;;;;;;;;4895865;29;46802;-80
2022/10/05 12:07:27;;;;;;;;;;;;;;;;;;4899673;29;44975;-79
2022/10/05 12:12:41;;;;;;;;;;;;;;;;;;4894248;29;44766;-80
2022/10/05 12:15:11;;;;;;;;;;;;;;;;;;4891502;29;45910;-79
2022/10/05 12:17:38;;;;;;;;;;;;;;;;;;4897936;29;45089;-80
2022/10/05 12:20:05;;;;;;;;;;;;;;;;;;4896503;29;44786;-79
2022/10/05 12:22:32;;;;;;;;;;;;;;;;;;4894044;29;44737;-81
2022/10/05 12:25:00;;;;;;;;;;;;;;;;;;4899783;29;43815;-80
2022/10/05 12:27:27;;;;;;;;;;;;;;;;;;4900921;29;45117;-79
2022/10/05 12:29:54;;;;;;;;;;;;;;;;;;4897368;29;43740;-79
2022/10/05 12:32:21;;;;;;;;;;;;;;;;;;4897408;29;44852;-79
2022/10/05 12:34:48;;;;;;;;;;;;;;;;;;4898749;29;45776;-80
2022/10/05 12:37:15;;;;;;;;;;;;;;;;;;4923883;29;44608;-79
2022/10/05 12:39:42;;;;;;;;;;;;;;;;;;4900217;29;44676;-79
2022/10/05 12:42:09;;;;;;;;;;;;;;;;;;4913212;29;45164;-79
2022/10/05 12:44:36;;;;;;;;;;;;;;;;;;4897824;29;45835;-79
2022/10/05 12:47:03;;;;;;;;;;;;;;;;;;4899309;29;44998;-80
2022/10/05 12:49:30;;;;;;;;;;;;;;;;;;4902083;29;43384;-81
2022/10/05 12:51:57;;;;;;;;;;;;;;;;;;4936391;29;44897;-80
2022/10/05 12:54:24;;;;;;;;;;;;;;;;;;4937517;29;45382;-80
2022/10/05 12:56:52;;;;;;;;;;;;;;;;;;4938238;29;43856;-80
2022/10/05 12:59:19;;;;;;;;;;;;;;;;;;4939157;29;43606;-80
2022/10/05 13:01:46;;;;;;;;;;;;;;;;;;4938266;28;44979;-80
2022/10/05 13:04:13;;;;;;;;;;;;;;;;;;4937807;29;43960;-80
2022/10/05 13:06:40;;;;;;;;;;;;;;;;;;4938600;29;46197;-80
2022/10/05 13:09:09;;;;;;;;;;;;;;;;;;4936293;28;42859;-80
2022/10/05 13:11:39;;;;;;;;;;;;;;;;;;4936038;29;43898;-80
2022/10/05 13:14:09;;;;;;;;;;;;;;;;;;4935577;28;45486;-80
2022/10/05 13:16:36;;;;;;;;;;;;;;;;;;4935122;29;43683;-80
2022/10/05 13:19:03;;;;;;;;;;;;;;;;;;4935548;28;43476;-80
2022/10/05 13:21:30;;;;;;;;;;;;;;;;;;4936426;29;44852;-80
2022/10/05 13:23:57;;;;;;;;;;;;;;;;;;4938048;29;46710;-80
2022/10/05 13:26:24;;;;;;;;;;;;;;;;;;4937848;29;45104;-80
2022/10/05 13:28:51;;;;;;;;;;;;;;;;;;4938238;29;43692;-80
2022/10/05 13:31:18;;;;;;;;;;;;;;;;;;4938159;28;43204;-80
2022/10/05 13:33:45;;;;;;;;;;;;;;;;;;4938197;29;47038;-80
2022/10/05 13:36:15;;;;;;;;;;;;;;;;;;4929504;29;43499;-80
2022/10/05 13:38:42;;;;;;;;;;;;;;;;;;4936102;28;42980;-80
2022/10/05 13:41:10;;;;;;;;;;;;;;;;;;4936184;29;44709;-80
2022/10/05 13:43:37;;;;;;;;;;;;;;;;;;4935036;29;45843;-80
2022/10/05 13:46:05;;;;;;;;;;;;;;;;;;4936845;29;44070;-80
2022/10/05 13:48:32;;;;;;;;;;;;;;;;;;4936255;29;43800;-80
2022/10/05 13:50:59;;;;;;;;;;;;;;;;;;4934708;29;44360;-80
2022/10/05 13:53:26;;;;;;;;;;;;;;;;;;4930031;28;45847;-80
2022/10/05 13:55:53;;;;;;;;;;;;;;;;;;4936169;29;44991;-80
2022/10/05 13:58:22;;;;;;;;;;;;;;;;;;4936747;29;19928;-80
2022/10/05 14:00:48;;;;;;;;;;;;;;;;;;4932270;29;44295;-80
2022/10/05 14:03:15;;;;;;;;;;;;;;;;;;4936576;29;46287;-81
2022/10/05 14:05:42;;;;;;;;;;;;;;;;;;4936399;28;44932;-80
2022/10/05 14:08:10;;;;;;;;;;;;;;;;;;4937163;29;43969;-80
2022/10/05 14:10:37;;;;;;;;;;;;;;;;;;4935688;28;44669;-80
2022/10/05 14:13:04;;;;;;;;;;;;;;;;;;4935986;29;46864;-81
2022/10/05 14:15:31;;;;;;;;;;;;;;;;;;4938633;29;45436;-80
2022/10/05 14:17:58;;;;;;;;;;;;;;;;;;4937529;29;43528;-82
2022/10/05 14:20:25;;;;;;;;;;;;;;;;;;4938432;29;44817;-81
2022/10/05 14:22:52;;;;;;;;;;;;;;;;;;4935922;28;46189;-81
2022/10/05 14:25:19;;;;;;;;;;;;;;;;;;4933567;28;45073;-80
2022/10/05 14:27:46;;;;;;;;;;;;;;;;;;4926780;28;44041;-81
2022/10/05 14:30:13;;;;;;;;;;;;;;;;;;4936447;29;45956;-81
2022/10/05 14:32:40;;;;;;;;;;;;;;;;;;4936894;29;44465;-81
2022/10/05 14:35:07;;;;;;;;;;;;;;;;;;4941770;29;44857;-80
2022/10/05 14:37:34;;;;;;;;;;;;;;;;;;4940183;29;43606;-81
2022/10/05 14:40:01;;;;;;;;;;;;;;;;;;4940069;28;43503;-80
2022/10/05 14:42:29;;;;;;;;;;;;;;;;;;4942350;29;45606;-80
2022/10/05 14:44:57;;;;;;;;;;;;;;;;;;4940220;29;45624;-81
2022/10/05 14:47:26;;;;;;;;;;;;;;;;;;4939711;29;43327;-80
2022/10/05 14:50:14;;;;;;;;;;;;;;;;;;4930252;28;44856;-81
2022/10/05 14:52:41;;;;;;;;;;;;;;;;;;4901887;29;43854;-80
2022/10/05 14:55:08;;;;;;;;;;;;;;;;;;4899371;29;44904;-80
2022/10/05 14:57:36;;;;;;;;;;;;;;;;;;4901419;29;44022;-80
2022/10/05 15:00:03;;;;;;;;;;;;;;;;;;4900817;29;44771;-80
2022/10/05 15:02:30;;;;;;;;;;;;;;;;;;4902143;29;44708;-80
2022/10/05 15:04:57;;;;;;;;;;;;;;;;;;4903555;29;43753;-79
2022/10/05 15:07:24;;;;;;;;;;;;;;;;;;4901692;29;43757;-80
2022/10/05 15:09:51;;;;;;;;;;;;;;;;;;4901928;29;43057;-80
2022/10/05 15:12:23;;;;;;;;;;;;;;;;;;4915430;29;46270;-80
2022/10/05 15:15:00;;;;;;;;;;;;;;;;;;4900743;29;43060;-79
2022/10/05 15:17:34;;;;;;;;;;;;;;;;;;4899557;29;41806;-80
2022/10/05 15:20:03;;;;;;;;;;;;;;;;;;4912603;29;44776;-80
2022/10/05 15:22:31;;;;;;;;;;;;;;;;;;4898114;29;45297;-80
2022/10/05 15:25:00;;;;;;;;;;;;;;;;;;4898416;29;44795;-80
2022/10/05 15:27:27;;;;;;;;;;;;;;;;;;4929513;29;45268;-80
2022/10/05 15:29:57;;;;;;;;;;;;;;;;;;4912768;29;44463;-80
2022/10/05 15:32:30;;;;;;;;;;;;;;;;;;4902768;29;45754;-81
2022/10/05 15:34:58;;;;;;;;;;;;;;;;;;4902870;29;43716;-80
2022/10/05 15:37:30;;;;;;;;;;;;;;;;;;4899372;29;45562;-81
2022/10/05 15:39:57;;;;;;;;;;;;;;;;;;4899561;29;44203;-81
2022/10/05 15:42:24;;;;;;;;;;;;;;;;;;4899502;29;45808;-80
2022/10/05 15:44:53;;;;;;;;;;;;;;;;;;4899476;29;45902;-80
2022/10/05 15:47:20;;;;;;;;;;;;;;;;;;4914561;29;43197;-80
2022/10/05 15:49:57;;;;;;;;;;;;;;;;;;4916132;29;45856;-81
2022/10/05 15:52:26;;;;;;;;;;;;;;;;;;4927627;29;46120;-80
2022/10/05 15:54:54;;;;;;;;;;;;;;;;;;4930010;29;45131;-80
2022/10/05 15:57:26;;;;;;;;;;;;;;;;;;4917069;29;42444;-80
2022/10/05 15:59:57;;;;;;;;;;;;;;;;;;4917007;29;44755;-80
2022/10/05 16:02:24;;;;;;;;;;;;;;;;;;4919805;29;47542;-80
2022/10/05 16:04:51;;;;;;;;;;;;;;;;;;4935788;29;43108;-80
2022/10/05 16:10:04;;;;;;;;;;;;;;;;;;4916821;29;47221;-79
2022/10/05 16:12:31;;;;;;;;;;;;;;;;;;4917344;29;45685;-80
2022/10/05 16:14:58;;;;;;;;;;;;;;;;;;4917076;29;46071;-80
2022/10/05 16:17:25;;;;;;;;;;;;;;;;;;4931029;29;43367;-81
2022/10/05 16:19:52;;;;;;;;;;;;;;;;;;4931448;29;43056;-81
2022/10/05 16:22:21;;;;;;;;;;;;;;;;;;4916056;29;46887;-80
2022/10/05 16:24:48;;;;;;;;;;;;;;;;;;4931419;29;45727;-80
2022/10/05 16:27:15;;;;;;;;;;;;;;;;;;4931878;29;44488;-80
2022/10/05 16:29:48;;;;;;;;;;;;;;;;;;4916754;29;43750;-80
2022/10/05 16:32:15;;;;;;;;;;;;;;;;;;4916438;29;44212;-80
2022/10/05 16:34:48;;;;;;;;;;;;;;;;;;4916133;29;45056;-80
2022/10/05 16:37:17;;;;;;;;;;;;;;;;;;4930736;29;43820;-80
2022/10/05 16:39:47;;;;;;;;;;;;;;;;;;4931687;29;43992;-81
2022/10/05 16:42:14;;;;;;;;;;;;;;;;;;4931085;29;46587;-80
2022/10/05 16:44:47;;;;;;;;;;;;;;;;;;4917603;29;44693;-80
2022/10/05 16:47:14;;;;;;;;;;;;;;;;;;4916755;29;44831;-80
2022/10/05 16:49:42;;;;;;;;;;;;;;;;;;4932655;29;43801;-80
2022/10/05 16:52:17;;;;;;;;;;;;;;;;;;4934773;29;47119;-81
2022/10/05 16:54:45;;;;;;;;;;;;;;;;;;4934277;28;45725;-80
2022/10/05 16:57:14;;;;;;;;;;;;;;;;;;4933740;29;43938;-81